Time;durP1;ratioP1;P1;durP2;ratioP2;P2;SDS_P1;SDS_P2;PMS_P1;PMS_P2;Temp;Humidity;BMP_temperature;BMP_pressure;BME280_temperature;BME280_humidity;BME280_pressure;Samples;Min_cycle;Max_cycle;Signal;HPM_P1;HPM_P2
2022/11/02 00:00:20;;;;;;;10.52;4.50;;;;;;;;;;5304357;27;20041;-70
2022/11/02 00:02:45;;;;;;;;;;;;;;;;;;5306596;27;20337;-69
2022/11/02 00:05:11;;;;;;;13.60;4.25;;;;;;;;;;5306459;27;19932;-68
2022/11/02 00:07:37;;;;;;;14.45;4.45;;;;;;;;;;5307082;27;20367;-69
2022/11/02 00:10:02;;;;;;;;;;;;;;;;;;5306493;27;20021;-69
2022/11/02 00:12:27;;;;;;;10.88;3.28;;;;;;;;;;5304755;27;19928;-70
2022/11/02 00:14:52;;;;;;;11.73;2.78;;;;;;;;;;5285364;27;20024;-69
2022/11/02 00:17:17;;;;;;;14.68;3.78;;;;;;;;;;5304509;27;20429;-69
2022/11/02 00:19:43;;;;;;;11.38;2.87;;;;;;;;;;5306992;27;20371;-69
2022/11/02 00:22:08;;;;;;;7.87;3.10;;;;;;;;;;5305482;27;20008;-69
2022/11/02 00:24:33;;;;;;;16.23;3.55;;;;;;;;;;5307224;27;20005;-69
2022/11/02 00:26:59;;;;;;;12.90;3.03;;;;;;;;;;5307245;27;20000;-69
2022/11/02 00:29:24;;;;;;;;;;;;;;;;;;5304722;27;20012;-67
2022/11/02 00:31:50;;;;;;;14.30;3.25;;;;;;;;;;5304731;27;19927;-69
2022/11/02 00:34:15;;;;;;;9.77;2.55;;;;;;;;;;5306242;27;20045;-69
2022/11/02 00:36:41;;;;;;;;;;;;;;;;;;5285223;27;20023;-69
2022/11/02 00:39:06;;;;;;;5.45;1.30;;;;;;;;;;5304418;27;20313;-68
2022/11/02 00:41:31;;;;;;;4.78;1.60;;;;;;;;;;5283820;27;20021;-69
2022/11/02 00:43:56;;;;;;;;;;;;;;;;;;5287016;27;20004;-69
2022/11/02 00:46:21;;;;;;;5.78;1.17;;;;;;;;;;5303931;27;19928;-69
2022/11/02 00:48:46;;;;;;;6.57;1.58;;;;;;;;;;5305214;27;20406;-70
2022/11/02 00:51:12;;;;;;;;;;;;;;;;;;5304252;27;20019;-70
2022/11/02 00:53:37;;;;;;;3.60;1.30;;;;;;;;;;5306249;27;19936;-70
2022/11/02 00:56:02;;;;;;;5.47;1.62;;;;;;;;;;5304524;27;20031;-70
2022/11/02 00:58:27;;;;;;;5.90;1.42;;;;;;;;;;5305901;27;20029;-70
2022/11/02 01:00:52;;;;;;;14.30;2.28;;;;;;;;;;5303670;27;20001;-70
2022/11/02 01:03:17;;;;;;;;;;;;;;;;;;5283960;27;20013;-70
2022/11/02 01:05:42;;;;;;;4.53;1.08;;;;;;;;;;5304397;27;19975;-70
2022/11/02 01:08:08;;;;;;;8.88;1.62;;;;;;;;;;5306814;27;20008;-70
2022/11/02 01:10:33;;;;;;;8.27;1.60;;;;;;;;;;5303838;27;20001;-70
2022/11/02 01:12:58;;;;;;;;;;;;;;;;;;5304326;27;20001;-69
2022/11/02 01:15:24;;;;;;;8.13;1.40;;;;;;;;;;5304364;27;19954;-71
2022/11/02 01:17:49;;;;;;;9.25;2.28;;;;;;;;;;5306922;27;20005;-70
2022/11/02 01:20:14;;;;;;;13.32;2.78;;;;;;;;;;5286639;27;20056;-70
2022/11/02 01:22:39;;;;;;;7.47;2.65;;;;;;;;;;5303541;27;20001;-70
2022/11/02 01:25:04;;;;;;;8.35;2.03;;;;;;;;;;5305965;27;20012;-68
2022/11/02 01:27:29;;;;;;;;;;;;;;;;;;5306802;27;20062;-69
2022/11/02 01:29:55;;;;;;;9.48;2.53;;;;;;;;;;5304088;27;19943;-69
2022/11/02 01:32:20;;;;;;;7.37;1.83;;;;;;;;;;5303760;27;20035;-69
2022/11/02 01:34:45;;;;;;;12.73;2.80;;;;;;;;;;5305808;27;20002;-69
2022/11/02 01:37:10;;;;;;;12.43;3.08;;;;;;;;;;5304962;27;20008;-70
2022/11/02 01:39:54;;;;;;;;;;;;;;;;;;5318719;26;20151;-78
2022/11/02 01:42:21;;;;;;;14.18;4.05;;;;;;;;;;5327033;27;20320;-77
2022/11/02 01:45:03;;;;;;;14.32;3.75;;;;;;;;;;5306263;27;20004;-77
2022/11/02 01:47:54;;;;;;;13.23;3.87;;;;;;;;;;5326104;27;19996;-77
2022/11/02 01:50:30;;;;;;;13.98;3.60;;;;;;;;;;5283827;27;20004;-77
2022/11/02 01:55:48;;;;;;;12.88;2.78;;;;;;;;;;5292157;27;20052;-78
2022/11/02 01:58:34;;;;;;;7.75;1.67;;;;;;;;;;5326503;27;20004;-78
2022/11/02 02:01:00;;;;;;;8.68;2.12;;;;;;;;;;5320106;27;19997;-78
2022/11/02 02:03:25;;;;;;;;;;;;;;;;;;5326463;27;20400;-77
2022/11/02 02:09:19;;;;;;;;;;;;;;;;;;;;;
2022/11/02 02:11:58;;;;;;;17.98;3.15;;;;;;;;;;5326459;27;20009;-77
2022/11/02 02:14:58;;;;;;;12.75;2.45;;;;;;;;;;5304862;27;20398;-78
2022/11/02 02:36:23;;;;;;;10.00;2.85;;;;;;;;;;5279773;27;20082;-77
2022/11/02 02:42:48;;;;;;;13.20;3.85;;;;;;;;;;5258477;27;20040;-77
2022/11/02 02:45:29;;;;;;;;;;;;;;;;;;;;;
2022/11/02 02:48:45;;;;;;;12.80;3.28;;;;;;;;;;5279911;27;20044;-76
2022/11/02 02:54:20;;;;;;;12.88;3.87;;;;;;;;;;5214017;27;20325;-77
2022/11/02 03:03:41;;;;;;;20.92;3.30;;;;;;;;;;5111315;28;19995;-76
2022/11/02 03:09:54;;;;;;;20.33;4.07;;;;;;;;;;5130660;27;20409;-77
2022/11/02 03:12:49;;;;;;;;;;;;;;;;;;;;;
2022/11/02 03:22:05;;;;;;;16.40;3.65;;;;;;;;;;5124229;28;20304;-78
2022/11/02 03:24:59;;;;;;;16.33;3.17;;;;;;;;;;5256535;27;20052;-77
2022/11/02 03:30:31;;;;;;;19.65;3.20;;;;;;;;;;5235938;27;20054;-77
2022/11/02 03:33:22;;;;;;;18.75;4.95;;;;;;;;;;5298603;27;20372;-77
2022/11/02 03:36:15;;;;;;;22.17;4.50;;;;;;;;;;5300228;27;20059;-76
2022/11/02 03:39:15;;;;;;;24.35;4.90;;;;;;;;;;5304066;27;20405;-78
2022/11/02 03:41:43;;;;;;;19.90;4.20;;;;;;;;;;5304385;27;20008;-76
2022/11/02 03:44:20;;;;;;;22.37;4.62;;;;;;;;;;5303408;27;20009;-77
2022/11/02 03:46:48;;;;;;;19.75;4.85;;;;;;;;;;5304019;27;20016;-76
2022/11/02 03:49:23;;;;;;;19.60;5.70;;;;;;;;;;5304282;27;20047;-77
2022/11/02 03:51:48;;;;;;;21.58;5.68;;;;;;;;;;5304237;27;20007;-77
2022/11/02 03:54:14;;;;;;;;;;;;;;;;;;5303577;27;20001;-78
2022/11/02 03:56:50;;;;;;;25.75;5.85;;;;;;;;;;5282712;27;19928;-78
2022/11/02 03:59:43;;;;;;;23.60;6.18;;;;;;;;;;5303366;27;20004;-78
2022/11/02 04:02:38;;;;;;;23.70;6.12;;;;;;;;;;5303846;27;19985;-78
2022/11/02 04:05:12;;;;;;;25.67;6.10;;;;;;;;;;5304007;27;20012;-80
2022/11/02 04:27:46;;;;;;;26.05;6.30;;;;;;;;;;5215964;27;20356;-78
2022/11/02 04:30:12;;;;;;;26.37;6.97;;;;;;;;;;5257695;27;20009;-77
2022/11/02 04:35:32;;;;;;;24.48;5.32;;;;;;;;;;5305391;27;20034;-78
2022/11/02 04:43:43;;;;;;;18.67;4.00;;;;;;;;;;5326718;27;20016;-77
2022/11/02 04:46:08;;;;;;;21.08;4.12;;;;;;;;;;5326937;27;20004;-79
2022/11/02 04:48:33;;;;;;;;;;;;;;;;;;5307213;27;20011;-77
2022/11/02 04:51:08;;;;;;;20.35;3.15;;;;;;;;;;5327266;27;19957;-78
2022/11/02 04:53:38;;;;;;;23.80;4.20;;;;;;;;;;5327300;27;19999;-78
2022/11/02 04:56:04;;;;;;;18.05;4.60;;;;;;;;;;5328334;27;20394;-77
2022/11/02 04:58:29;;;;;;;;;;;;;;;;;;5307041;27;20001;-78
2022/11/02 05:01:00;;;;;;;18.33;4.62;;;;;;;;;;5326804;27;19976;-78
2022/11/02 05:06:11;;;;;;;18.00;3.53;;;;;;;;;;5322183;27;20016;-77
2022/11/02 05:08:36;;;;;;;;;;;;;;;;;;5326921;27;20032;-76
2022/11/02 05:11:01;;;;;;;26.10;3.12;;;;;;;;;;5307190;27;19971;-76
2022/11/02 05:13:27;;;;;;;11.52;2.60;;;;;;;;;;5326919;27;20043;-76
2022/11/02 05:15:52;;;;;;;;;;;;;;;;;;5326764;27;20014;-76
2022/11/02 05:18:17;;;;;;;12.93;2.65;;;;;;;;;;5326572;27;20326;-76
2022/11/02 05:20:42;;;;;;;;;;;;;;;;;;5326756;27;20096;-76
2022/11/02 05:23:08;;;;;;;21.87;4.37;;;;;;;;;;5307550;27;19964;-76
2022/11/02 05:25:35;;;;;;;;;;;;;;;;;;5326766;27;20015;-76
2022/11/02 05:28:01;;;;;;;;;;;;;;;;;;5327527;27;19928;-75
2022/11/02 05:33:17;;;;;;;12.27;2.50;;;;;;;;;;5318898;27;20319;-75
2022/11/02 05:35:43;;;;;;;10.85;2.70;;;;;;;;;;5326266;27;20027;-77
2022/11/02 05:38:13;;;;;;;;;;;;;;;;;;5326975;26;20001;-77
2022/11/02 05:40:53;;;;;;;16.00;3.05;;;;;;;;;;5326610;27;19928;-76
2022/11/02 05:43:18;;;;;;;17.52;3.12;;;;;;;;;;5306915;27;19993;-76
2022/11/02 05:45:43;;;;;;;;;;;;;;;;;;5326950;27;20011;-76
2022/11/02 05:48:09;;;;;;;8.82;2.28;;;;;;;;;;5326528;27;19967;-76
2022/11/02 05:50:34;;;;;;;;;;;;;;;;;;5327689;27;20099;-76
2022/11/02 05:52:59;;;;;;;13.40;2.78;;;;;;;;;;5326296;27;19939;-75
2022/11/02 05:55:24;;;;;;;;;;;;;;;;;;5326882;27;20107;-76
2022/11/02 05:57:51;;;;;;;12.02;2.00;;;;;;;;;;5326802;27;19928;-75
2022/11/02 06:00:25;;;;;;;14.60;3.05;;;;;;;;;;5326177;27;20005;-76
2022/11/02 06:02:57;;;;;;;8.02;1.98;;;;;;;;;;5326555;27;19992;-74
2022/11/02 06:05:23;;;;;;;7.20;1.90;;;;;;;;;;5306960;27;20020;-77
2022/11/02 06:07:48;;;;;;;16.23;2.37;;;;;;;;;;5306317;27;20368;-76
2022/11/02 06:10:13;;;;;;;;;;;;;;;;;;5326580;27;20027;-77
2022/11/02 06:12:39;;;;;;;9.30;2.80;;;;;;;;;;5326509;27;20340;-77
2022/11/02 06:15:07;;;;;;;;;;;;;;;;;;5306511;27;20125;-77
2022/11/02 06:17:36;;;;;;;10.25;2.12;;;;;;;;;;5306308;27;19934;-77
2022/11/02 06:20:05;;;;;;;10.45;1.98;;;;;;;;;;5306811;27;20005;-77
2022/11/02 06:25:39;;;;;;;12.95;1.92;;;;;;;;;;5326012;27;20015;-77
2022/11/02 06:28:21;;;;;;;12.75;2.10;;;;;;;;;;5326547;27;19993;-77
2022/11/02 06:30:52;;;;;;;13.45;2.75;;;;;;;;;;5305267;27;20046;-78
2022/11/02 06:33:37;;;;;;;9.68;2.33;;;;;;;;;;5326451;27;20047;-77
2022/11/02 06:36:04;;;;;;;24.77;2.97;;;;;;;;;;5325704;27;20004;-77
2022/11/02 06:38:33;;;;;;;11.52;2.40;;;;;;;;;;5326639;26;20012;-77
2022/11/02 06:41:05;;;;;;;17.25;2.20;;;;;;;;;;5325957;27;20024;-77
2022/11/02 06:43:38;;;;;;;13.05;2.28;;;;;;;;;;5306143;27;19993;-77
2022/11/02 06:46:03;;;;;;;10.40;2.83;;;;;;;;;;5326567;27;19992;-76
2022/11/02 06:48:36;;;;;;;;;;;;;;;;;;5326228;27;20020;-78
2022/11/02 06:51:39;;;;;;;15.38;3.35;;;;;;;;;;5326143;27;19939;-77
2022/11/02 06:54:20;;;;;;;9.55;2.30;;;;;;;;;;5306206;27;20001;-77
2022/11/02 06:56:48;;;;;;;19.42;2.35;;;;;;;;;;5286682;27;20013;-77
2022/11/02 06:59:14;;;;;;;13.30;2.40;;;;;;;;;;5304597;27;20012;-76
2022/11/02 07:01:39;;;;;;;;;;;;;;;;;;5325929;27;20041;-78
2022/11/02 07:04:09;;;;;;;10.60;1.92;;;;;;;;;;5326091;27;20208;-77
2022/11/02 07:09:29;;;;;;;14.80;2.47;;;;;;;;;;5279431;27;20084;-78
2022/11/02 07:11:54;;;;;;;11.45;2.65;;;;;;;;;;5320655;27;20008;-76
2022/11/02 07:14:19;;;;;;;;;;;;;;;;;;5326398;27;20027;-77
2022/11/02 07:16:45;;;;;;;15.45;2.58;;;;;;;;;;5305962;27;19935;-76
2022/11/02 07:19:10;;;;;;;;;;;;;;;;;;5325802;27;20107;-76
2022/11/02 07:31:34;;;;;;;10.43;2.40;;;;;;;;;;5173249;27;20329;-77
2022/11/02 07:37:38;;;;;;;12.52;2.55;;;;;;;;;;5231761;27;20021;-76
2022/11/02 07:40:20;;;;;;;9.20;2.65;;;;;;;;;;5308717;26;20031;-76
2022/11/02 07:45:44;;;;;;;18.45;4.22;;;;;;;;;;5303280;27;20007;-76
2022/11/02 07:48:19;;;;;;;12.27;2.58;;;;;;;;;;5304699;27;19992;-76
2022/11/02 07:50:44;;;;;;;18.35;3.05;;;;;;;;;;5283394;27;20007;-77
2022/11/02 07:53:09;;;;;;;;;;;;;;;;;;5305069;27;20001;-76
2022/11/02 07:55:40;;;;;;;12.07;3.15;;;;;;;;;;5304962;27;19928;-76
2022/11/02 07:58:53;;;;;;;16.87;2.85;;;;;;;;;;5305629;27;20303;-76
2022/11/02 08:07:08;;;;;;;13.93;2.50;;;;;;;;;;5306531;27;20000;-76
2022/11/02 08:16:22;;;;;;;11.15;2.70;;;;;;;;;;5174304;27;20425;-76
2022/11/02 08:19:00;;;;;;;;;;;;;;;;;;;;;
2022/11/02 08:24:25;;;;;;;13.77;2.80;;;;;;;;;;5132575;28;20450;-76
2022/11/02 08:27:01;;;;;;;12.93;3.75;;;;;;;;;;5229997;27;20042;-76
2022/11/02 08:29:27;;;;;;;17.98;3.45;;;;;;;;;;5305578;27;20004;-75
2022/11/02 08:31:52;;;;;;;;;;;;;;;;;;5305120;27;20048;-76
2022/11/02 08:34:28;;;;;;;14.38;2.75;;;;;;;;;;5304596;27;19971;-76
2022/11/02 08:43:53;;;;;;;15.38;3.55;;;;;;;;;;5279822;27;20037;-75
2022/11/02 08:47:37;;;;;;;10.07;2.35;;;;;;;;;;5273679;27;20021;-75
2022/11/02 08:49:53;;;;;;;;;;;;;;;;;;;;;
2022/11/02 08:52:45;;;;;;;16.02;2.80;;;;;;;;;;5281204;27;20032;-75
2022/11/02 08:55:23;;;;;;;13.95;2.65;;;;;;;;;;5280515;27;20025;-75
2022/11/02 08:58:03;;;;;;;10.60;2.60;;;;;;;;;;5279986;27;20025;-75
2022/11/02 09:00:34;;;;;;;12.48;2.17;;;;;;;;;;5293511;27;20001;-76
2022/11/02 09:03:23;;;;;;;10.45;2.40;;;;;;;;;;5326498;27;19985;-76
2022/11/02 09:05:48;;;;;;;15.27;3.12;;;;;;;;;;5327225;27;20015;-76
2022/11/02 09:08:15;;;;;;;8.90;2.22;;;;;;;;;;5326495;27;20038;-76
2022/11/02 09:10:46;;;;;;;10.85;2.87;;;;;;;;;;5326652;27;20013;-76
2022/11/02 09:13:12;;;;;;;11.80;2.40;;;;;;;;;;5305539;27;20061;-76
2022/11/02 09:15:57;;;;;;;16.27;2.92;;;;;;;;;;5326256;27;20076;-77
2022/11/02 09:18:22;;;;;;;14.82;2.67;;;;;;;;;;5326259;27;20004;-77
2022/11/02 09:20:55;;;;;;;;;;;;;;;;;;5326560;27;20365;-76
2022/11/02 09:26:06;;;;;;;21.70;3.15;;;;;;;;;;5310766;27;20008;-76
2022/11/02 09:31:39;;;;;;;;;;;;;;;;;;;;;
2022/11/02 09:34:11;;;;;;;13.00;2.58;;;;;;;;;;5327034;27;20016;-77
2022/11/02 09:36:39;;;;;;;16.75;2.97;;;;;;;;;;5326163;27;20334;-77
2022/11/02 09:39:17;;;;;;;15.23;2.50;;;;;;;;;;5326368;26;20045;-77
2022/11/02 09:41:49;;;;;;;10.35;2.72;;;;;;;;;;5326354;27;20007;-76
2022/11/02 09:44:34;;;;;;;11.00;2.95;;;;;;;;;;5326588;27;20004;-75
2022/11/02 09:47:31;;;;;;;17.60;3.50;;;;;;;;;;5326284;27;20012;-76
2022/11/02 09:53:03;;;;;;;14.63;2.65;;;;;;;;;;5299765;27;20016;-77
2022/11/02 09:55:33;;;;;;;19.45;2.70;;;;;;;;;;5325658;27;20000;-77
2022/11/02 09:58:19;;;;;;;14.23;2.62;;;;;;;;;;5326699;27;20021;-77
2022/11/02 10:00:53;;;;;;;13.52;3.50;;;;;;;;;;5326271;27;20019;-77
2022/11/02 10:03:40;;;;;;;15.00;3.60;;;;;;;;;;5326530;27;20011;-76
2022/11/02 10:06:40;;;;;;;12.27;2.83;;;;;;;;;;5326362;27;20379;-77
2022/11/02 10:09:22;;;;;;;13.57;2.72;;;;;;;;;;5313914;27;20075;-77
2022/11/02 10:14:55;;;;;;;19.42;3.20;;;;;;;;;;5317162;27;19999;-78
2022/11/02 10:17:46;;;;;;;29.15;3.75;;;;;;;;;;5325834;27;20000;-76
2022/11/02 10:20:24;;;;;;;11.23;3.22;;;;;;;;;;5321045;27;20011;-75
2022/11/02 10:22:56;;;;;;;12.65;3.25;;;;;;;;;;5306131;27;20000;-75
2022/11/02 10:25:44;;;;;;;15.70;3.55;;;;;;;;;;5326632;27;20078;-76
2022/11/02 10:28:19;;;;;;;16.70;3.33;;;;;;;;;;5326439;27;20389;-76
2022/11/02 10:31:06;;;;;;;10.82;2.90;;;;;;;;;;5306251;27;20343;-76
2022/11/02 10:37:17;;;;;;;16.80;3.30;;;;;;;;;;5257331;27;20461;-75
2022/11/02 10:40:16;;;;;;;15.63;3.53;;;;;;;;;;5258093;27;20057;-75
2022/11/02 10:46:01;;;;;;;16.08;3.25;;;;;;;;;;5318053;27;20003;-75
2022/11/02 10:55:27;;;;;;;15.40;3.33;;;;;;;;;;5279970;27;20323;-74
2022/11/02 10:58:13;;;;;;;;;;;;;;;;;;;;;
2022/11/02 11:04:11;;;;;;;15.85;3.53;;;;;;;;;;5257419;27;20009;-77
2022/11/02 11:10:12;;;;;;;13.77;3.85;;;;;;;;;;5213077;27;20093;-77
2022/11/02 11:16:23;;;;;;;15.98;3.17;;;;;;;;;;5235744;27;20009;-77
2022/11/02 11:25:39;;;;;;;14.77;4.32;;;;;;;;;;5110573;28;20004;-76
2022/11/02 12:00:16;;;;;;;12.35;2.83;;;;;;;;;;5102519;27;20530;-76
2022/11/02 12:03:10;;;;;;;13.35;3.97;;;;;;;;;;5201387;27;20061;-75
2022/11/02 12:08:36;;;;;;;17.83;3.90;;;;;;;;;;5216700;27;20037;-75
2022/11/02 12:11:38;;;;;;;17.60;3.42;;;;;;;;;;5215947;27;20468;-77
2022/11/02 12:15:23;;;;;;;12.68;2.95;;;;;;;;;;5258723;27;20016;-77
2022/11/02 12:33:35;;;;;;;17.15;3.85;;;;;;;;;;5086776;28;20128;-75
2022/11/02 12:39:07;;;;;;;17.90;4.50;;;;;;;;;;5152869;27;20038;-76
2022/11/02 12:41:37;;;;;;;17.95;3.05;;;;;;;;;;5152802;27;20003;-78
2022/11/02 12:44:16;;;;;;;17.33;3.58;;;;;;;;;;5229126;27;20025;-75
2022/11/02 12:46:45;;;;;;;18.95;3.65;;;;;;;;;;5327279;27;20000;-76
2022/11/02 12:49:29;;;;;;;15.55;4.07;;;;;;;;;;5326908;27;20280;-70
2022/11/02 12:52:09;;;;;;;21.85;4.22;;;;;;;;;;5325257;27;20340;-71
2022/11/02 12:54:37;;;;;;;17.30;3.65;;;;;;;;;;5325819;27;20299;-72
2022/11/02 12:57:02;;;;;;;20.25;4.22;;;;;;;;;;5325135;27;20001;-74
2022/11/02 12:59:30;;;;;;;15.55;3.85;;;;;;;;;;5325868;27;20042;-71
2022/11/02 13:01:58;;;;;;;15.65;3.62;;;;;;;;;;5327999;27;20459;-71
2022/11/02 13:04:46;;;;;;;15.68;3.50;;;;;;;;;;5325508;27;20009;-70
2022/11/02 13:07:13;;;;;;;13.88;3.47;;;;;;;;;;5291406;27;20016;-70
2022/11/02 13:09:41;;;;;;;19.90;4.10;;;;;;;;;;5306580;27;20004;-70
2022/11/02 13:12:08;;;;;;;13.75;2.80;;;;;;;;;;5325338;27;20019;-70
2022/11/02 13:14:48;;;;;;;13.82;3.00;;;;;;;;;;5324903;27;20001;-71
2022/11/02 13:17:17;;;;;;;15.60;3.17;;;;;;;;;;5326420;27;20048;-71
2022/11/02 13:19:45;;;;;;;12.27;4.07;;;;;;;;;;5307817;27;20012;-70
2022/11/02 13:22:11;;;;;;;16.62;3.33;;;;;;;;;;5325364;27;20004;-69
2022/11/02 13:24:42;;;;;;;17.95;3.10;;;;;;;;;;5325818;27;20073;-69
2022/11/02 13:27:24;;;;;;;16.05;2.90;;;;;;;;;;5322282;27;20440;-68
2022/11/02 13:29:50;;;;;;;15.23;3.10;;;;;;;;;;5327298;27;19996;-72
2022/11/02 13:32:26;;;;;;;19.95;3.60;;;;;;;;;;5325235;27;20018;-69
2022/11/02 13:34:52;;;;;;;;;;;;;;;;;;5325906;27;20000;-71
2022/11/02 13:37:20;;;;;;;17.67;3.12;;;;;;;;;;5324902;27;19942;-69
2022/11/02 13:39:57;;;;;;;21.23;3.53;;;;;;;;;;5324141;26;20292;-71
2022/11/02 13:42:34;;;;;;;12.30;3.20;;;;;;;;;;5323741;27;20020;-71
2022/11/02 13:45:17;;;;;;;17.05;3.17;;;;;;;;;;5304808;27;20171;-69
2022/11/02 13:47:57;;;;;;;17.10;4.20;;;;;;;;;;5327655;27;20036;-71
2022/11/02 13:50:24;;;;;;;18.30;3.60;;;;;;;;;;5324839;27;20001;-71
2022/11/02 13:52:55;;;;;;;17.83;3.65;;;;;;;;;;5325324;27;20004;-71
2022/11/02 13:55:21;;;;;;;20.80;4.30;;;;;;;;;;5327590;27;19988;-69
2022/11/02 13:57:48;;;;;;;18.27;3.55;;;;;;;;;;5324783;27;20039;-71
2022/11/02 14:00:37;;;;;;;17.62;3.97;;;;;;;;;;5305299;27;20015;-71
2022/11/02 14:03:06;;;;;;;19.70;4.05;;;;;;;;;;5291057;27;20315;-70
2022/11/02 14:05:39;;;;;;;21.02;4.10;;;;;;;;;;5306894;27;20008;-70
2022/11/02 14:08:06;;;;;;;19.35;4.15;;;;;;;;;;5306992;27;20354;-72
2022/11/02 14:10:34;;;;;;;19.65;4.90;;;;;;;;;;5304910;27;20008;-70
2022/11/02 14:12:59;;;;;;;21.05;4.97;;;;;;;;;;5325935;27;20027;-69
2022/11/02 14:15:25;;;;;;;16.33;3.65;;;;;;;;;;5325997;27;20386;-73
2022/11/02 14:17:53;;;;;;;23.00;4.10;;;;;;;;;;5326896;27;20000;-70
2022/11/02 14:20:32;;;;;;;17.87;3.25;;;;;;;;;;5325567;27;20012;-71
2022/11/02 14:23:13;;;;;;;18.92;4.05;;;;;;;;;;5305137;27;20372;-70
2022/11/02 14:25:47;;;;;;;22.87;3.80;;;;;;;;;;5304012;27;20412;-72
2022/11/02 14:28:21;;;;;;;18.77;4.12;;;;;;;;;;5305232;27;20011;-70
2022/11/02 14:30:48;;;;;;;14.20;3.87;;;;;;;;;;5305018;27;20012;-71
2022/11/02 14:33:21;;;;;;;21.77;3.62;;;;;;;;;;5305609;27;20034;-70
2022/11/02 14:35:55;;;;;;;18.02;3.80;;;;;;;;;;5326319;27;19988;-71
2022/11/02 14:38:32;;;;;;;18.92;3.58;;;;;;;;;;5325050;26;20019;-71
2022/11/02 14:40:57;;;;;;;23.65;4.20;;;;;;;;;;5325368;27;20026;-71
2022/11/02 14:43:25;;;;;;;26.12;3.90;;;;;;;;;;5324656;27;20064;-70
2022/11/02 14:46:11;;;;;;;11.35;3.25;;;;;;;;;;5324617;27;20035;-71
2022/11/02 14:48:44;;;;;;;15.87;4.10;;;;;;;;;;5306603;27;20023;-72
2022/11/02 14:51:16;;;;;;;22.58;3.72;;;;;;;;;;5325567;27;20486;-71
2022/11/02 14:53:41;;;;;;;17.98;3.67;;;;;;;;;;5323916;27;20356;-71
2022/11/02 14:56:06;;;;;;;18.10;3.83;;;;;;;;;;5324553;27;20005;-73
2022/11/02 14:58:37;;;;;;;14.57;3.30;;;;;;;;;;5327767;27;20004;-73
2022/11/02 15:01:03;;;;;;;20.02;4.97;;;;;;;;;;5325248;27;20004;-72
2022/11/02 15:03:31;;;;;;;10.35;2.70;;;;;;;;;;5325040;27;20011;-72
2022/11/02 15:06:12;;;;;;;21.83;3.53;;;;;;;;;;5322824;27;20004;-72
2022/11/02 15:08:40;;;;;;;17.42;3.62;;;;;;;;;;5324830;27;20042;-71
2022/11/02 15:11:26;;;;;;;21.58;4.05;;;;;;;;;;5325086;27;20071;-71
2022/11/02 15:13:51;;;;;;;20.37;5.03;;;;;;;;;;5250928;27;20013;-71
2022/11/02 15:16:20;;;;;;;12.10;3.12;;;;;;;;;;5325216;27;20386;-72
2022/11/02 15:18:46;;;;;;;19.08;3.58;;;;;;;;;;5326384;27;20474;-71
2022/11/02 15:21:16;;;;;;;13.40;2.80;;;;;;;;;;5325696;27;20000;-72
2022/11/02 15:23:57;;;;;;;17.37;3.10;;;;;;;;;;5304396;27;20001;-71
2022/11/02 15:26:34;;;;;;;15.18;3.15;;;;;;;;;;5326270;27;20000;-71
2022/11/02 15:29:00;;;;;;;16.55;3.33;;;;;;;;;;5324985;27;20291;-72
2022/11/02 15:31:26;;;;;;;16.95;3.25;;;;;;;;;;5324337;27;20016;-71
2022/11/02 15:33:56;;;;;;;18.00;4.32;;;;;;;;;;5324052;27;20291;-72
2022/11/02 15:36:31;;;;;;;10.38;3.03;;;;;;;;;;5325735;27;20000;-72
2022/11/02 15:38:56;;;;;;;14.68;3.15;;;;;;;;;;5324704;26;20038;-72
2022/11/02 15:41:40;;;;;;;18.30;3.53;;;;;;;;;;5303115;27;20013;-71
2022/11/02 15:44:24;;;;;;;12.63;4.25;;;;;;;;;;5324910;27;20039;-72
2022/11/02 15:47:09;;;;;;;16.42;2.95;;;;;;;;;;5304678;27;20009;-72
2022/11/02 15:49:34;;;;;;;12.45;3.58;;;;;;;;;;5304430;27;20077;-72
2022/11/02 15:52:05;;;;;;;18.80;3.67;;;;;;;;;;5324875;27;20379;-70
2022/11/02 15:54:44;;;;;;;20.65;3.30;;;;;;;;;;5323996;27;20092;-70
2022/11/02 15:57:09;;;;;;;15.05;2.83;;;;;;;;;;5325349;27;19996;-75
2022/11/02 15:59:36;;;;;;;12.40;2.58;;;;;;;;;;5326016;27;20024;-74
2022/11/02 16:02:09;;;;;;;10.95;2.90;;;;;;;;;;5325295;27;20126;-72
2022/11/02 16:04:34;;;;;;;18.92;3.10;;;;;;;;;;5324484;27;20370;-73
2022/11/02 16:07:00;;;;;;;;;;;;;;;;;;5324737;27;20116;-73
2022/11/02 16:09:35;;;;;;;15.27;3.62;;;;;;;;;;5325319;27;19941;-72
2022/11/02 16:12:01;;;;;;;16.35;3.28;;;;;;;;;;5325179;27;20004;-73
2022/11/02 16:14:26;;;;;;;;;;;;;;;;;;5308202;27;20000;-73
2022/11/02 16:16:51;;;;;;;13.62;3.40;;;;;;;;;;5307123;27;19927;-74
2022/11/02 16:19:20;;;;;;;17.23;4.45;;;;;;;;;;5305813;27;20052;-72
2022/11/02 16:21:45;;;;;;;23.00;4.32;;;;;;;;;;5327381;27;20001;-72
2022/11/02 16:24:11;;;;;;;16.45;3.10;;;;;;;;;;5325329;27;20075;-73
2022/11/02 16:26:36;;;;;;;;;;;;;;;;;;5325573;27;20023;-73
2022/11/02 16:29:02;;;;;;;17.30;4.10;;;;;;;;;;5304312;27;20074;-73
2022/11/02 16:31:30;;;;;;;11.32;2.58;;;;;;;;;;5306067;27;20000;-72
2022/11/02 16:33:57;;;;;;;17.65;3.70;;;;;;;;;;5305344;27;20050;-74
2022/11/02 16:36:23;;;;;;;17.37;4.43;;;;;;;;;;5328683;27;20004;-76
2022/11/02 16:39:00;;;;;;;21.58;3.75;;;;;;;;;;5325997;26;20363;-73
2022/11/02 16:41:27;;;;;;;17.10;3.78;;;;;;;;;;5325416;27;20001;-74
2022/11/02 16:43:53;;;;;;;11.38;3.00;;;;;;;;;;5325312;27;20217;-72
2022/11/02 16:46:27;;;;;;;16.42;3.33;;;;;;;;;;5328506;27;20029;-74
2022/11/02 16:49:12;;;;;;;9.43;2.87;;;;;;;;;;5326240;27;19997;-73
2022/11/02 16:51:37;;;;;;;13.68;3.10;;;;;;;;;;5305858;27;20001;-73
2022/11/02 16:54:15;;;;;;;16.33;3.08;;;;;;;;;;5326889;27;20011;-72
2022/11/02 16:56:45;;;;;;;14.93;2.90;;;;;;;;;;5328120;27;19984;-73
2022/11/02 16:59:12;;;;;;;18.67;3.10;;;;;;;;;;5326331;27;20052;-72
2022/11/02 17:01:38;;;;;;;17.73;4.28;;;;;;;;;;5326234;27;20044;-73
2022/11/02 17:04:21;;;;;;;22.55;4.87;;;;;;;;;;5325362;27;20417;-73
2022/11/02 17:06:47;;;;;;;14.27;3.50;;;;;;;;;;5305154;27;20037;-72
2022/11/02 17:09:20;;;;;;;15.25;3.10;;;;;;;;;;5326738;27;20009;-73
2022/11/02 17:11:45;;;;;;;16.08;3.92;;;;;;;;;;5305582;27;20315;-72
2022/11/02 17:14:11;;;;;;;16.12;3.47;;;;;;;;;;5327248;27;20042;-73
2022/11/02 17:16:44;;;;;;;13.98;4.18;;;;;;;;;;5307544;27;20001;-73
2022/11/02 17:19:29;;;;;;;9.40;2.85;;;;;;;;;;5305954;27;20012;-73
2022/11/02 17:22:03;;;;;;;12.18;3.08;;;;;;;;;;5323005;27;20020;-73
2022/11/02 17:24:30;;;;;;;12.45;3.35;;;;;;;;;;5323081;27;20000;-72
2022/11/02 17:27:14;;;;;;;13.45;3.00;;;;;;;;;;5305407;27;20001;-73
2022/11/02 17:29:39;;;;;;;13.48;3.97;;;;;;;;;;5327138;27;19996;-72
2022/11/02 17:32:06;;;;;;;;;;;;;;;;;;5327313;27;20053;-73
2022/11/02 17:34:31;;;;;;;20.73;3.97;;;;;;;;;;5324026;27;20286;-75
2022/11/02 17:36:56;;;;;;;16.95;3.17;;;;;;;;;;5322061;27;20038;-73
2022/11/02 17:39:21;;;;;;;;;;;;;;;;;;5305131;27;20395;-72
2022/11/02 17:44:33;;;;;;;9.88;3.37;;;;;;;;;;5327744;27;20142;-73
2022/11/02 17:46:58;;;;;;;;;;;;;;;;;;5327704;27;20001;-72
2022/11/02 17:49:24;;;;;;;17.35;5.87;;;;;;;;;;5326532;27;19928;-72
2022/11/02 17:51:49;;;;;;;17.40;4.70;;;;;;;;;;5326694;27;20426;-73
2022/11/02 17:54:14;;;;;;;;;;;;;;;;;;5305662;27;20106;-72
2022/11/02 17:56:39;;;;;;;11.55;3.65;;;;;;;;;;5327206;27;19928;-71
2022/11/02 17:59:04;;;;;;;;;;;;;;;;;;5305022;27;20102;-72
2022/11/02 18:01:30;;;;;;;8.65;3.12;;;;;;;;;;5324818;27;20241;-72
2022/11/02 18:03:55;;;;;;;18.45;3.40;;;;;;;;;;5306121;27;20008;-72
2022/11/02 18:06:20;;;;;;;;;;;;;;;;;;5325386;27;20011;-71
2022/11/02 18:11:30;;;;;;;18.92;5.70;;;;;;;;;;5325542;27;20158;-71
2022/11/02 18:13:55;;;;;;;;;;;;;;;;;;5324885;27;20001;-73
2022/11/02 18:16:20;;;;;;;15.32;3.22;;;;;;;;;;5324777;27;20290;-72
2022/11/02 18:18:46;;;;;;;17.30;4.43;;;;;;;;;;5325407;27;20001;-72
2022/11/02 18:21:11;;;;;;;;;;;;;;;;;;5306004;27;20005;-72
2022/11/02 18:23:37;;;;;;;14.48;4.15;;;;;;;;;;5325266;27;19934;-71
2022/11/02 18:26:03;;;;;;;14.18;3.30;;;;;;;;;;5325086;27;20069;-70
2022/11/02 18:28:28;;;;;;;18.62;3.75;;;;;;;;;;5325605;27;20008;-71
2022/11/02 18:30:53;;;;;;;21.87;3.58;;;;;;;;;;5303760;27;20078;-72
2022/11/02 18:33:18;;;;;;;;;;;;;;;;;;5325057;27;20096;-72
2022/11/02 18:35:44;;;;;;;14.48;3.33;;;;;;;;;;5324539;27;19933;-71
2022/11/02 18:38:09;;;;;;;10.18;3.00;;;;;;;;;;5325091;26;20418;-71
2022/11/02 18:40:34;;;;;;;13.02;3.58;;;;;;;;;;5306126;27;20013;-73
2022/11/02 18:42:59;;;;;;;14.82;3.20;;;;;;;;;;5325631;27;20004;-71
2022/11/02 18:45:25;;;;;;;14.90;4.40;;;;;;;;;;5307039;27;20333;-72
2022/11/02 18:47:50;;;;;;;12.88;3.95;;;;;;;;;;5326935;27;20014;-71
2022/11/02 18:50:15;;;;;;;16.70;3.00;;;;;;;;;;5327040;27;20019;-71
2022/11/02 18:52:44;;;;;;;10.63;3.20;;;;;;;;;;5325317;27;20325;-72
2022/11/02 18:55:09;;;;;;;16.15;2.90;;;;;;;;;;5324865;27;20008;-72
2022/11/02 18:57:34;;;;;;;9.23;3.25;;;;;;;;;;5324689;27;20000;-73
2022/11/02 19:00:01;;;;;;;12.77;3.47;;;;;;;;;;5326360;27;20042;-72
2022/11/02 19:02:26;;;;;;;20.37;4.18;;;;;;;;;;5325167;27;20023;-71
2022/11/02 19:04:51;;;;;;;;;;;;;;;;;;5324738;27;20382;-72
2022/11/02 19:10:00;;;;;;;17.50;4.82;;;;;;;;;;5324937;27;20052;-72
2022/11/02 19:12:26;;;;;;;;;;;;;;;;;;5324944;27;20379;-72
2022/11/02 19:14:53;;;;;;;15.27;4.80;;;;;;;;;;5325279;27;20315;-72